• Join FlightAware (Why Join?)
  • Login
  • US Flag 
07:22AM EST


 

Airport Tracker/Info


-or-


 

Live Flight TrackerFlight Track Log ✈ SWA2003 ✈ 28-Dec-2013 ✈ KMDW - KCLE

Flight Track Log - Related Links

Times and Time Zones

All times are in EST time to prevent confusion due to time zone crossing. See the SWA2003 flight status page for this flight to view local times or setup timezone preferences in your user account.

Time Position Orientation Groundspeed Altitude Reporting Facility
EST Latitude Longitude Course Direction KTS MPH feet Rate Location/Type
07:01PM 41.7833 -87.7833 90° East 166 191 2,900  Level Chicago TRACON
07:02PM 41.8333 -87.7500 26° Northeast 282 325 3,000 850 Climbing Chicago TRACON
07:03PM 41.8167 -87.6500 103° East 266 306 4,600 2,250 Climbing Chicago TRACON
07:04PM 41.8167 -87.5500 90° East 308 354 7,500 3,000 Climbing Chicago TRACON
07:05PM 41.8000 -87.4333 101° East 316 364 10,600 2,857 Climbing Chicago TRACON
07:06PM 41.7872 -87.3125 98° East 324 373 13,500 2,531 Climbing Chicago Center
07:07PM 41.7590 -87.0916 90° East  Level Estimated
07:07PM 41.7744 -87.1886 98° East 334 384 16,000  Level Chicago Center
07:09PM 41.7622 -87.0525 97° East 369 425 17,500 2,049 Climbing Chicago Center
07:10PM 41.7639 -86.8978 89° East 391 450 20,200 2,226 Climbing Chicago Center
07:11PM 41.7669 -86.7258 89° East 406 467 22,100 1,659 Climbing Chicago Center
07:12PM 41.7831 -86.5811 81° East 428 493 23,600 1,659 Climbing Chicago Center
07:13PM 41.7992 -86.4172 82° East 442 509 25,500 1,500 Climbing Chicago Center
07:14PM 41.8158 -86.2494 82° East 451 519 26,700 726 Climbing Chicago Center
07:15PM 41.8353 -86.0392 83° East 472 543 27,000 146 Climbing Chicago Center
07:16PM 41.8525 -85.8603 83° East 480 552 27,000  Level Chicago Center
07:17PM 41.8683 -85.6817 83° East 481 554 27,000  Level Chicago Center
07:18PM 41.8858 -85.4997 83° East 485 558 27,000  Level Chicago Center
07:19PM 41.9011 -85.3164 84° East 487 560 27,000  Level Chicago Center
07:20PM 41.9178 -85.1311 83° East 493 567 27,000  Level Chicago Center
07:21PM 41.9325 -84.9489 84° East 491 565 27,000  Level Chicago Center
07:22PM 41.9483 -84.7658 83° East 491 565 27,000  Level Chicago Center
07:23PM 41.9594 -84.5836 85° East 492 566 27,000  Level Chicago Center
07:24PM 41.9669 -84.3939 87° East 491 565 27,000 -113 Level Chicago Center
07:25PM 41.9725 -84.2475 87° East 490 564 26,800 -686 Descending Cleveland Center
07:26PM 41.9808 -84.0658 86° East 491 565 25,800 -885 Descending Cleveland Center
07:27PM 41.9892 -83.8881 86° East 483 556 25,000 -393 Descending Cleveland Center
07:28PM 41.9964 -83.7142 87° East 475 547 25,000 -439 Level Cleveland Center
07:29PM 42.0047 -83.5139 87° East 459 528 24,100 -976 Descending Cleveland Center
07:30PM 42.0103 -83.3464 87° East 447 514 23,000 -1,033 Descending Cleveland Center
07:31PM 42.0156 -83.1917 87° East 435 501 22,000 -976 Descending Cleveland Center
07:32PM 42.0083 -83.0372 94° East 419 482 21,000 -1,366 Descending Cleveland Center
07:33PM 41.9925 -82.8844 98° East 416 479 19,200 -1,647 Descending Cleveland Center
07:34PM 41.9794 -82.7694 99° East 403 464 18,200 -1,180 Descending Cleveland Center
07:34PM 41.9778 -82.7367 94° East 401 461 18,000 -1,535 Descending Cleveland Center
07:34PM 41.9689 -82.6658 100° East 398 458 17,100 -1,967 Descending Cleveland Center
07:35PM 41.9636 -82.5906 95° East 397 457 16,000 -2,164 Descending Cleveland Center
07:35PM 41.9472 -82.5214 108° East 391 450 14,900 -2,032 Descending Cleveland Center
07:36PM 41.9292 -82.4553 110° East 386 444 13,900 -2,000 Descending Cleveland Center
07:36PM 41.9072 -82.3933 115° Southeast 374 430 12,900 -2,361 Descending Cleveland Center
07:37PM 41.8814 -82.3025 111° Southeast 372 428 11,500 -1,967 Descending Cleveland Center
07:37PM 41.8689 -82.2658 115° Southeast 357 411 10,900 -1,574 Descending Cleveland Center
07:38PM 41.8428 -82.1800 112° Southeast 362 417 9,900 -1,000 Descending Cleveland Center
07:38PM 41.8250 -82.1517 130° Southeast 326 375 9,900  Level Cleveland Center
07:39PM 41.7831 -82.1042 140° Southeast 313 360 9,900  Level Cleveland Center
07:39PM 41.7547 -82.0753 143° Southeast 299 344 9,900 -492 Level Cleveland Center
07:40PM 41.7192 -82.0328 138° Southeast 300 345 9,400 -1,300 Descending Cleveland Center
07:40PM 41.6917 -82.0058 144° Southeast 292 336 8,600 -1,574 Descending Cleveland Center
07:41PM 41.6558 -81.9644 139° Southeast 293 337 7,800 -1,475 Descending Cleveland Center
07:41PM 41.6286 -81.9394 146° Southeast 289 333 7,100 -1,839 Descending Cleveland Center
07:42PM 41.5922 -81.8994 141° Southeast 287 330 5,900 -2,066 Descending Cleveland Center
07:42PM 41.5672 -81.8761 145° Southeast 275 316 5,000 -2,066 Descending Cleveland Center
07:43PM 41.5381 -81.8297 130° Southeast 277 319 3,800 -1,727 Descending Cleveland Center
07:43PM 41.5206 -81.7903 121° Southeast 248 285 3,100 -885 Descending Cleveland Center
07:44PM 41.5011 -81.7547 126° Southeast 252 290 2,900 -295 Descending Cleveland Center
07:44PM 41.4828 -81.7450 158° South 133 153 2,800 -290 Descending Cleveland Center
07:45PM 41.4703 -81.7569 216° Southwest 162 186 2,600 -492 Descending Cleveland Center
07:45PM 41.4611 -81.7750 236° Southwest 102 117 2,300 -787 Descending Cleveland Center
07:46PM 41.4486 -81.7956 231° Southwest 122 140 1,800 -700 Descending Cleveland Center
07:46PM 41.4417 -81.8053 226° Southwest 112 129 1,600 -590 Descending Cleveland Center
07:47PM 41.4283 -81.8281 232° Southwest 115 132 1,200 -590 Descending Cleveland Center
07:47PM 41.4214 -81.8411 235° Southwest 125 144 1,000 -387 Descending Cleveland Center
07:48PM 41.4069 -81.8614 226° Southwest 118 136 800 -286 Descending Cleveland Center
07:50PM 41.4094 -81.8547 228° Southwest  Level Estimated